Latest Weather Observations for Banana Bank

IDQ60801

Issued at 1:02 am EST Monday 27 May 2024 (issued every 10 minutes, with the page automatically refreshed every 10 minutes)

About weather observations | Map of weather stations | Latest weather observations for QLD | Other Formats
Station Details ID: 040925 Name: BANANA BANK NORTH BEACON Lat: -27.53 Lon: 153.33 Height: 7.0 m
Data from the previous 72 hours. | See also: Recent months at Banana Bank
Date/Time
EST
Temp
°C
App
Temp
°C
Dew
Point
°C
Rel
Hum
%
Delta-T
°C
Wind Press
QNH
hPa
Press
MSL
hPa
Rain since
9am
mm
Dir  Spd
km/h
Gust
km/h
Spd
kts
Gust
kts
27/01:00am - - - - - S 6 7 3 4 - - -
27/12:30am - - - - - S 7 9 4 5 - - -
27/12:00am - - - - - SSW 6 7 3 4 - - -
 
Date/Time
EST
Temp
°C
App
Temp
°C
Dew
Point
°C
Rel
Hum
%
Delta-T
°C
Wind Press
QNH
hPa
Press
MSL
hPa
Rain since
9am
mm
Dir  Spd
km/h
Gust
km/h
Spd
kts
Gust
kts
26/11:30pm - - - - - SSW 11 15 6 8 - - -
26/11:00pm - - - - - SSW 15 17 8 9 - - -
26/10:30pm - - - - - SSW 9 13 5 7 - - -
26/10:00pm - - - - - SSW 9 11 5 6 - - -
26/09:30pm - - - - - S 9 11 5 6 - - -
26/09:00pm - - - - - SSW 6 6 3 3 - - -
26/08:30pm - - - - - CALM 0 0 0 0 - - -
26/08:00pm - - - - - CALM 0 0 0 0 - - -
26/07:30pm - - - - - SSW 4 4 2 2 - - -
26/07:00pm - - - - - S 6 6 3 3 - - -
26/06:30pm - - - - - S 7 7 4 4 - - -
26/06:00pm - - - - - ESE 6 7 3 4 - - -
26/05:30pm - - - - - ESE 7 7 4 4 - - -
26/05:00pm - - - - - ESE 7 9 4 5 - - -
26/04:30pm - - - - - E 9 13 5 7 - - -
26/04:00pm - - - - - SE 7 9 4 5 - - -
26/03:30pm - - - - - ESE 7 9 4 5 - - -
26/03:00pm - - - - - ESE 13 15 7 8 - - -
26/02:30pm - - - - - SE 13 17 7 9 - - -
26/02:00pm - - - - - SE 7 9 4 5 - - -
26/01:30pm - - - - - SSW 4 6 2 3 - - -
26/01:00pm - - - - - S 4 6 2 3 - - -
26/12:30pm - - - - - S 6 6 3 3 - - -
26/12:00pm - - - - - SE 4 6 2 3 - - -
26/11:30am - - - - - ENE 6 7 3 4 - - -
26/11:00am - - - - - ESE 15 20 8 11 - - -
26/10:30am - - - - - SSE 9 11 5 6 - - -
26/10:00am - - - - - SSE 9 11 5 6 - - -
26/09:30am - - - - - S 11 13 6 7 - - -
26/09:00am - - - - - S 11 13 6 7 - - -
26/08:30am - - - - - SSW 7 7 4 4 - - -
26/08:00am - - - - - SSW 9 9 5 5 - - -
26/07:30am - - - - - SSW 11 11 6 6 - - -
26/07:00am - - - - - SSW 11 13 6 7 - - -
26/06:30am - - - - - SW 13 17 7 9 - - -
26/06:00am - - - - - SSW 17 19 9 10 - - -
26/05:30am - - - - - SSW 19 22 10 12 - - -
26/05:00am - - - - - SSW 19 20 10 11 - - -
26/04:30am - - - - - SSW 17 19 9 10 - - -
26/04:00am - - - - - SW 13 17 7 9 - - -
26/03:30am - - - - - SW 11 13 6 7 - - -
26/03:00am - - - - - S 7 9 4 5 - - -
26/02:30am - - - - - S 9 13 5 7 - - -
26/02:00am - - - - - S 13 15 7 8 - - -
26/01:30am - - - - - S 15 17 8 9 - - -
26/01:00am - - - - - S 15 17 8 9 - - -
26/12:30am - - - - - S 13 15 7 8 - - -
26/12:00am - - - - - S 13 15 7 8 - - -
 
Date/Time
EST
Temp
°C
App
Temp
°C
Dew
Point
°C
Rel
Hum
%
Delta-T
°C
Wind Press
QNH
hPa
Press
MSL
hPa
Rain since
9am
mm
Dir  Spd
km/h
Gust
km/h
Spd
kts
Gust
kts
25/11:30pm - - - - - S 11 15 6 8 - - -
25/11:00pm - - - - - S 13 15 7 8 - - -
25/10:30pm - - - - - SSE 15 17 8 9 - - -
25/10:00pm - - - - - SSE 20 24 11 13 - - -
25/09:30pm - - - - - SSE 22 26 12 14 - - -
25/09:00pm - - - - - SSE 19 20 10 11 - - -
25/08:30pm - - - - - SSE 24 30 13 16 - - -
25/08:00pm - - - - - SSE 17 22 9 12 - - -
25/07:30pm - - - - - SSE 22 26 12 14 - - -
25/07:00pm - - - - - SE 24 30 13 16 - - -
25/06:30pm - - - - - SSE 22 24 12 13 - - -
25/06:00pm - - - - - SSE 24 28 13 15 - - -
25/05:30pm - - - - - S 13 15 7 8 - - -
25/05:00pm - - - - - SSE 13 13 7 7 - - -
25/04:30pm - - - - - SE 17 19 9 10 - - -
25/04:00pm - - - - - SE 17 26 9 14 - - -
25/03:30pm - - - - - SSE 15 17 8 9 - - -
25/03:00pm - - - - - S 15 17 8 9 - - -
25/02:30pm - - - - - S 15 19 8 10 - - -
25/02:00pm - - - - - ESE 11 15 6 8 - - -
25/01:30pm - - - - - SSE 15 17 8 9 - - -
25/01:00pm - - - - - SSE 24 30 13 16 - - -
25/12:30pm - - - - - SSE 28 33 15 18 - - -
25/12:00pm - - - - - S 26 32 14 17 - - -
25/11:30am - - - - - SSE 26 30 14 16 - - -
25/11:00am - - - - - S 24 28 13 15 - - -
25/10:30am - - - - - S 28 33 15 18 - - -
25/10:00am - - - - - SSW 24 28 13 15 - - -
25/09:30am - - - - - SSW 22 24 12 13 - - -
25/09:00am - - - - - SSW 19 20 10 11 - - -
25/08:30am - - - - - SSW 22 24 12 13 - - -
25/08:00am - - - - - SSW 20 24 11 13 - - -
25/07:30am - - - - - SW 19 22 10 12 - - -
25/07:00am - - - - - SW 19 22 10 12 - - -
25/06:30am - - - - - WSW 15 19 8 10 - - -
25/06:00am - - - - - NNW 9 13 5 7 - - -
25/05:30am - - - - - NW 9 11 5 6 - - -
25/05:00am - - - - - NW 9 11 5 6 - - -
25/04:30am - - - - - NNE 7 11 4 6 - - -
25/04:00am - - - - - SW 2 4 1 2 - - -
25/03:30am - - - - - S 6 7 3 4 - - -
25/03:00am - - - - - SW 7 7 4 4 - - -
25/02:30am - - - - - ENE 4 7 2 4 - - -
25/02:00am - - - - - SSE 2 6 1 3 - - -
25/01:30am - - - - - SSW 7 9 4 5 - - -
25/01:00am - - - - - - 4 7 2 4 - - -
25/12:30am - - - - - E 15 22 8 12 - - -
25/12:00am - - - - - SSE 11 15 6 8 - - -
 
Date/Time
EST
Temp
°C
App
Temp
°C
Dew
Point
°C
Rel
Hum
%
Delta-T
°C
Wind Press
QNH
hPa
Press
MSL
hPa
Rain since
9am
mm
Dir  Spd
km/h
Gust
km/h
Spd
kts
Gust
kts
24/11:30pm - - - - - SSW 15 19 8 10 - - -
24/11:00pm - - - - - SSW 24 28 13 15 - - -
24/10:30pm - - - - - S 20 28 11 15 - - -
24/10:00pm - - - - - S 19 22 10 12 - - -
24/09:30pm - - - - - S 19 22 10 12 - - -
24/09:00pm - - - - - SSE 15 17 8 9 - - -
24/08:30pm - - - - - SSE 17 20 9 11 - - -
24/08:00pm - - - - - SSE 19 22 10 12 - - -
24/07:30pm - - - - - SE 15 19 8 10 - - -
24/07:00pm - - - - - SSE 17 26 9 14 - - -
24/06:30pm - - - - - SE 19 24 10 13 - - -
24/06:00pm - - - - - ESE 22 26 12 14 - - -
24/05:30pm - - - - - ESE 20 24 11 13 - - -
24/05:00pm - - - - - ESE 22 28 12 15 - - -
24/04:30pm - - - - - SE 19 22 10 12 - - -
24/04:00pm - - - - - SE 22 28 12 15 - - -
24/03:30pm - - - - - SE 20 24 11 13 - - -
24/03:00pm - - - - - SE 22 26 12 14 - - -
24/02:30pm - - - - - SE 15 17 8 9 - - -
24/02:00pm - - - - - SE 17 19 9 10 - - -
24/01:30pm - - - - - SE 13 17 7 9 - - -
24/01:00pm - - - - - SE 15 17 8 9 - - -
24/12:30pm - - - - - SSE 11 15 6 8 - - -
24/12:00pm - - - - - SSE 11 15 6 8 - - -
24/11:30am - - - - - SSW 9 11 5 6 - - -
24/11:00am - - - - - S 11 15 6 8 - - -
24/10:30am - - - - - S 11 15 6 8 - - -
24/10:00am - - - - - SSW 11 13 6 7 - - -
24/09:30am - - - - - SSE 4 7 2 4 - - -
24/09:00am - - - - - SW 4 6 2 3 - - -
24/08:30am - - - - - SW 7 7 4 4 - - -
24/08:00am - - - - - SSW 9 9 5 5 - - -
24/07:30am - - - - - SSW 9 13 5 7 - - -
24/07:00am - - - - - SW 6 7 3 4 - - -
24/06:30am - - - - - WSW 7 13 4 7 - - -
24/06:00am - - - - - SW 13 15 7 8 - - -
24/05:30am - - - - - S 11 13 6 7 - - -
24/05:00am - - - - - SSW 9 11 5 6 - - -
24/04:30am - - - - - SSW 9 11 5 6 - - -
24/04:00am - - - - - SW 11 13 6 7 - - -
24/03:30am - - - - - SW 9 11 5 6 - - -
24/03:00am - - - - - SW 11 13 6 7 - - -
24/02:30am - - - - - SSW 7 11 4 6 - - -
24/02:00am - - - - - S 11 13 6 7 - - -
24/01:30am - - - - - SSW 13 15 7 8 - - -

Other formats

Comma delimited format used in spreadsheet applications
http://www.bom.gov.au/fwo/IDQ60801/IDQ60801.94591.axf

JavaScript Object Notation format (JSON) in row-major order
http://www.bom.gov.au/fwo/IDQ60801/IDQ60801.94591.json

Data quality

Most of these data are generated automatically and are frequently updated. Quality checks on data are not normally performed. It is possible for incorrect values to appear. Refer to information at About Latest Weather Observations and please check the disclaimer before using these data.